sensor_id;sensor_type;location;lat;lon;timestamp;P1;durP1;ratioP1;P2;durP2;ratioP2
11791;SDS011;5953;52.372;9.918;2022-11-03T00:01:33;3.80;;;1.60;;
11791;SDS011;5953;52.372;9.918;2022-11-03T00:04:03;4.97;;;1.50;;
11791;SDS011;5953;52.372;9.918;2022-11-03T00:06:31;5.43;;;1.90;;
11791;SDS011;5953;52.372;9.918;2022-11-03T00:08:59;4.57;;;1.77;;
11791;SDS011;5953;52.372;9.918;2022-11-03T00:11:30;6.07;;;1.37;;
11791;SDS011;5953;52.372;9.918;2022-11-03T00:13:58;6.50;;;2.07;;
11791;SDS011;5953;52.372;9.918;2022-11-03T00:16:26;7.53;;;2.17;;
11791;SDS011;5953;52.372;9.918;2022-11-03T00:18:56;2.93;;;1.30;;
11791;SDS011;5953;52.372;9.918;2022-11-03T00:21:23;7.23;;;1.70;;
11791;SDS011;5953;52.372;9.918;2022-11-03T00:23:51;3.23;;;1.07;;
11791;SDS011;5953;52.372;9.918;2022-11-03T00:26:20;8.00;;;2.40;;
11791;SDS011;5953;52.372;9.918;2022-11-03T00:28:49;6.20;;;1.50;;
11791;SDS011;5953;52.372;9.918;2022-11-03T00:31:20;5.57;;;1.93;;
11791;SDS011;5953;52.372;9.918;2022-11-03T00:33:49;7.27;;;1.60;;
11791;SDS011;5953;52.372;9.918;2022-11-03T00:36:19;5.27;;;1.57;;
11791;SDS011;5953;52.372;9.918;2022-11-03T00:38:48;5.70;;;1.60;;
11791;SDS011;5953;52.372;9.918;2022-11-03T00:41:17;5.23;;;1.87;;
11791;SDS011;5953;52.372;9.918;2022-11-03T00:43:46;4.40;;;1.50;;
11791;SDS011;5953;52.372;9.918;2022-11-03T00:46:14;4.17;;;1.50;;
11791;SDS011;5953;52.372;9.918;2022-11-03T00:48:43;7.07;;;1.70;;
11791;SDS011;5953;52.372;9.918;2022-11-03T00:51:12;7.50;;;1.80;;
11791;SDS011;5953;52.372;9.918;2022-11-03T00:53:43;5.43;;;1.80;;
11791;SDS011;5953;52.372;9.918;2022-11-03T00:56:12;9.63;;;2.30;;
11791;SDS011;5953;52.372;9.918;2022-11-03T00:58:41;6.53;;;1.30;;
11791;SDS011;5953;52.372;9.918;2022-11-03T01:01:10;6.13;;;1.83;;
11791;SDS011;5953;52.372;9.918;2022-11-03T01:03:40;4.07;;;1.50;;
11791;SDS011;5953;52.372;9.918;2022-11-03T01:06:28;8.27;;;2.10;;
11791;SDS011;5953;52.372;9.918;2022-11-03T01:09:16;7.47;;;2.10;;
11791;SDS011;5953;52.372;9.918;2022-11-03T01:11:49;7.37;;;1.90;;
11791;SDS011;5953;52.372;9.918;2022-11-03T01:14:22;6.93;;;1.77;;
11791;SDS011;5953;52.372;9.918;2022-11-03T01:16:50;5.23;;;1.53;;
11791;SDS011;5953;52.372;9.918;2022-11-03T01:19:18;6.80;;;2.23;;
11791;SDS011;5953;52.372;9.918;2022-11-03T01:21:46;8.20;;;1.53;;
11791;SDS011;5953;52.372;9.918;2022-11-03T01:24:14;6.43;;;1.70;;
11791;SDS011;5953;52.372;9.918;2022-11-03T01:26:44;6.53;;;1.83;;
11791;SDS011;5953;52.372;9.918;2022-11-03T01:29:11;10.13;;;1.77;;
11791;SDS011;5953;52.372;9.918;2022-11-03T01:31:39;7.20;;;1.70;;
11791;SDS011;5953;52.372;9.918;2022-11-03T01:34:07;7.53;;;1.63;;
11791;SDS011;5953;52.372;9.918;2022-11-03T01:36:38;8.13;;;1.97;;
11791;SDS011;5953;52.372;9.918;2022-11-03T01:39:07;3.83;;;1.60;;
11791;SDS011;5953;52.372;9.918;2022-11-03T01:41:36;6.80;;;2.00;;
11791;SDS011;5953;52.372;9.918;2022-11-03T01:44:25;6.33;;;1.83;;
11791;SDS011;5953;52.372;9.918;2022-11-03T01:47:00;9.23;;;2.03;;
11791;SDS011;5953;52.372;9.918;2022-11-03T01:49:34;7.30;;;1.77;;
11791;SDS011;5953;52.372;9.918;2022-11-03T01:52:07;6.77;;;1.50;;
11791;SDS011;5953;52.372;9.918;2022-11-03T01:54:39;12.03;;;2.87;;
11791;SDS011;5953;52.372;9.918;2022-11-03T01:57:11;7.07;;;1.97;;
11791;SDS011;5953;52.372;9.918;2022-11-03T01:59:43;3.90;;;1.60;;
11791;SDS011;5953;52.372;9.918;2022-11-03T02:02:13;5.70;;;1.67;;
11791;SDS011;5953;52.372;9.918;2022-11-03T02:04:41;5.70;;;1.90;;
11791;SDS011;5953;52.372;9.918;2022-11-03T02:07:12;11.50;;;2.53;;
11791;SDS011;5953;52.372;9.918;2022-11-03T02:09:46;5.87;;;2.00;;
11791;SDS011;5953;52.372;9.918;2022-11-03T02:12:13;6.83;;;2.20;;
11791;SDS011;5953;52.372;9.918;2022-11-03T02:14:47;8.93;;;2.53;;
11791;SDS011;5953;52.372;9.918;2022-11-03T02:17:18;7.50;;;2.20;;
11791;SDS011;5953;52.372;9.918;2022-11-03T02:19:48;6.50;;;2.00;;
11791;SDS011;5953;52.372;9.918;2022-11-03T02:25:28;6.67;;;2.27;;
11791;SDS011;5953;52.372;9.918;2022-11-03T02:27:59;5.90;;;2.30;;
11791;SDS011;5953;52.372;9.918;2022-11-03T02:30:43;8.03;;;2.40;;
11791;SDS011;5953;52.372;9.918;2022-11-03T02:33:19;10.40;;;2.53;;
11791;SDS011;5953;52.372;9.918;2022-11-03T02:35:53;8.57;;;3.17;;
11791;SDS011;5953;52.372;9.918;2022-11-03T02:38:25;8.47;;;2.17;;
11791;SDS011;5953;52.372;9.918;2022-11-03T02:40:59;10.07;;;3.50;;
11791;SDS011;5953;52.372;9.918;2022-11-03T02:43:29;5.57;;;2.00;;
11791;SDS011;5953;52.372;9.918;2022-11-03T02:45:58;8.40;;;2.10;;
11791;SDS011;5953;52.372;9.918;2022-11-03T02:48:27;6.10;;;2.20;;
11791;SDS011;5953;52.372;9.918;2022-11-03T02:50:55;6.87;;;2.07;;
11791;SDS011;5953;52.372;9.918;2022-11-03T02:53:23;5.97;;;2.03;;
11791;SDS011;5953;52.372;9.918;2022-11-03T02:55:54;5.17;;;1.63;;
11791;SDS011;5953;52.372;9.918;2022-11-03T02:58:29;8.13;;;2.37;;
11791;SDS011;5953;52.372;9.918;2022-11-03T03:01:03;8.80;;;2.40;;
11791;SDS011;5953;52.372;9.918;2022-11-03T03:03:41;7.10;;;2.57;;
11791;SDS011;5953;52.372;9.918;2022-11-03T03:06:14;4.00;;;1.57;;
11791;SDS011;5953;52.372;9.918;2022-11-03T03:08:46;9.70;;;2.30;;
11791;SDS011;5953;52.372;9.918;2022-11-03T03:11:19;3.73;;;1.87;;
11791;SDS011;5953;52.372;9.918;2022-11-03T03:14:04;9.27;;;2.47;;
11791;SDS011;5953;52.372;9.918;2022-11-03T03:16:39;8.37;;;1.60;;
11791;SDS011;5953;52.372;9.918;2022-11-03T03:19:21;4.87;;;1.87;;
11791;SDS011;5953;52.372;9.918;2022-11-03T03:22:02;8.90;;;2.20;;
11791;SDS011;5953;52.372;9.918;2022-11-03T03:24:39;5.73;;;1.43;;
11791;SDS011;5953;52.372;9.918;2022-11-03T03:27:15;5.60;;;1.83;;
11791;SDS011;5953;52.372;9.918;2022-11-03T03:29:47;3.00;;;1.50;;
11791;SDS011;5953;52.372;9.918;2022-11-03T03:32:19;4.60;;;1.77;;
11791;SDS011;5953;52.372;9.918;2022-11-03T03:34:50;5.13;;;2.00;;
11791;SDS011;5953;52.372;9.918;2022-11-03T03:37:20;6.37;;;1.63;;
11791;SDS011;5953;52.372;9.918;2022-11-03T03:39:51;6.80;;;1.50;;
11791;SDS011;5953;52.372;9.918;2022-11-03T03:42:23;7.97;;;2.27;;
11791;SDS011;5953;52.372;9.918;2022-11-03T03:44:54;7.77;;;2.33;;
11791;SDS011;5953;52.372;9.918;2022-11-03T03:47:26;6.30;;;1.70;;
11791;SDS011;5953;52.372;9.918;2022-11-03T03:49:55;4.30;;;1.50;;
11791;SDS011;5953;52.372;9.918;2022-11-03T03:52:24;3.57;;;1.30;;
11791;SDS011;5953;52.372;9.918;2022-11-03T03:54:52;9.90;;;2.10;;
11791;SDS011;5953;52.372;9.918;2022-11-03T03:57:21;4.50;;;1.80;;
11791;SDS011;5953;52.372;9.918;2022-11-03T03:59:51;8.83;;;1.77;;
11791;SDS011;5953;52.372;9.918;2022-11-03T04:02:19;5.70;;;1.90;;
11791;SDS011;5953;52.372;9.918;2022-11-03T04:04:47;8.13;;;1.87;;
11791;SDS011;5953;52.372;9.918;2022-11-03T04:07:14;6.90;;;1.90;;
11791;SDS011;5953;52.372;9.918;2022-11-03T04:10:06;4.23;;;1.93;;
11791;SDS011;5953;52.372;9.918;2022-11-03T04:12:35;6.70;;;1.80;;
11791;SDS011;5953;52.372;9.918;2022-11-03T04:15:21;6.53;;;1.80;;
11791;SDS011;5953;52.372;9.918;2022-11-03T04:18:06;7.07;;;1.67;;
11791;SDS011;5953;52.372;9.918;2022-11-03T04:20:51;4.43;;;1.97;;
11791;SDS011;5953;52.372;9.918;2022-11-03T04:23:36;6.43;;;1.70;;
11791;SDS011;5953;52.372;9.918;2022-11-03T04:26:04;12.47;;;2.27;;
11791;SDS011;5953;52.372;9.918;2022-11-03T04:28:38;4.60;;;1.50;;
11791;SDS011;5953;52.372;9.918;2022-11-03T04:31:08;6.03;;;1.70;;
11791;SDS011;5953;52.372;9.918;2022-11-03T04:33:36;5.47;;;2.00;;
11791;SDS011;5953;52.372;9.918;2022-11-03T04:36:08;6.00;;;1.97;;
11791;SDS011;5953;52.372;9.918;2022-11-03T04:38:38;4.83;;;1.53;;
11791;SDS011;5953;52.372;9.918;2022-11-03T04:41:10;8.93;;;2.43;;
11791;SDS011;5953;52.372;9.918;2022-11-03T04:43:43;5.50;;;1.80;;
11791;SDS011;5953;52.372;9.918;2022-11-03T04:46:15;4.20;;;1.80;;
11791;SDS011;5953;52.372;9.918;2022-11-03T04:48:44;6.07;;;1.83;;
11791;SDS011;5953;52.372;9.918;2022-11-03T04:51:13;12.13;;;2.20;;
11791;SDS011;5953;52.372;9.918;2022-11-03T04:53:44;8.93;;;2.63;;
11791;SDS011;5953;52.372;9.918;2022-11-03T04:56:15;5.13;;;1.80;;
11791;SDS011;5953;52.372;9.918;2022-11-03T04:58:47;9.27;;;2.20;;
11791;SDS011;5953;52.372;9.918;2022-11-03T05:01:16;7.13;;;1.67;;
11791;SDS011;5953;52.372;9.918;2022-11-03T05:03:50;2.33;;;1.20;;
11791;SDS011;5953;52.372;9.918;2022-11-03T05:06:20;7.27;;;2.00;;
11791;SDS011;5953;52.372;9.918;2022-11-03T05:08:49;9.87;;;1.70;;
11791;SDS011;5953;52.372;9.918;2022-11-03T05:11:23;4.90;;;2.00;;
11791;SDS011;5953;52.372;9.918;2022-11-03T05:13:57;4.27;;;1.80;;
11791;SDS011;5953;52.372;9.918;2022-11-03T05:16:27;5.00;;;1.80;;
11791;SDS011;5953;52.372;9.918;2022-11-03T05:18:57;14.67;;;2.20;;
11791;SDS011;5953;52.372;9.918;2022-11-03T05:21:26;7.10;;;1.80;;
11791;SDS011;5953;52.372;9.918;2022-11-03T05:23:55;9.40;;;1.80;;
11791;SDS011;5953;52.372;9.918;2022-11-03T05:26:24;6.20;;;2.37;;
11791;SDS011;5953;52.372;9.918;2022-11-03T05:28:56;5.17;;;1.80;;
11791;SDS011;5953;52.372;9.918;2022-11-03T05:31:27;9.20;;;1.80;;
11791;SDS011;5953;52.372;9.918;2022-11-03T05:33:57;7.97;;;2.07;;
11791;SDS011;5953;52.372;9.918;2022-11-03T05:36:26;9.30;;;1.73;;
11791;SDS011;5953;52.372;9.918;2022-11-03T05:38:58;6.93;;;1.80;;
11791;SDS011;5953;52.372;9.918;2022-11-03T05:41:38;7.07;;;1.67;;
11791;SDS011;5953;52.372;9.918;2022-11-03T05:44:13;5.67;;;1.53;;
11791;SDS011;5953;52.372;9.918;2022-11-03T05:46:51;5.40;;;1.90;;
11791;SDS011;5953;52.372;9.918;2022-11-03T05:49:19;7.33;;;2.33;;
11791;SDS011;5953;52.372;9.918;2022-11-03T05:51:47;5.13;;;1.60;;
11791;SDS011;5953;52.372;9.918;2022-11-03T05:54:22;7.33;;;2.40;;
11791;SDS011;5953;52.372;9.918;2022-11-03T05:56:52;5.40;;;1.80;;
11791;SDS011;5953;52.372;9.918;2022-11-03T05:59:24;8.03;;;2.17;;
11791;SDS011;5953;52.372;9.918;2022-11-03T06:01:54;8.93;;;2.20;;
11791;SDS011;5953;52.372;9.918;2022-11-03T06:04:27;7.63;;;2.13;;
11791;SDS011;5953;52.372;9.918;2022-11-03T06:06:59;6.93;;;2.43;;
11791;SDS011;5953;52.372;9.918;2022-11-03T06:09:31;7.13;;;2.10;;
11791;SDS011;5953;52.372;9.918;2022-11-03T06:12:01;9.53;;;1.90;;
11791;SDS011;5953;52.372;9.918;2022-11-03T06:14:33;7.07;;;1.80;;
11791;SDS011;5953;52.372;9.918;2022-11-03T06:17:03;5.37;;;1.83;;
11791;SDS011;5953;52.372;9.918;2022-11-03T06:19:34;4.50;;;1.90;;
11791;SDS011;5953;52.372;9.918;2022-11-03T06:22:07;11.13;;;2.10;;
11791;SDS011;5953;52.372;9.918;2022-11-03T06:24:41;7.53;;;2.00;;
11791;SDS011;5953;52.372;9.918;2022-11-03T06:27:11;6.37;;;2.20;;
11791;SDS011;5953;52.372;9.918;2022-11-03T06:29:41;5.70;;;2.50;;
11791;SDS011;5953;52.372;9.918;2022-11-03T06:32:15;11.70;;;2.27;;
11791;SDS011;5953;52.372;9.918;2022-11-03T06:34:43;7.33;;;2.57;;
11791;SDS011;5953;52.372;9.918;2022-11-03T06:37:20;6.40;;;2.23;;
11791;SDS011;5953;52.372;9.918;2022-11-03T06:39:53;8.40;;;3.93;;
11791;SDS011;5953;52.372;9.918;2022-11-03T06:42:25;16.13;;;7.30;;
11791;SDS011;5953;52.372;9.918;2022-11-03T06:44:59;14.40;;;7.17;;
11791;SDS011;5953;52.372;9.918;2022-11-03T06:47:28;8.57;;;4.20;;
11791;SDS011;5953;52.372;9.918;2022-11-03T06:49:58;7.37;;;2.90;;
11791;SDS011;5953;52.372;9.918;2022-11-03T06:52:28;10.47;;;3.90;;
11791;SDS011;5953;52.372;9.918;2022-11-03T06:55:06;7.43;;;2.43;;
11791;SDS011;5953;52.372;9.918;2022-11-03T06:57:46;9.00;;;2.80;;
11791;SDS011;5953;52.372;9.918;2022-11-03T07:00:18;8.87;;;2.50;;
11791;SDS011;5953;52.372;9.918;2022-11-03T07:03:08;14.40;;;6.77;;
11791;SDS011;5953;52.372;9.918;2022-11-03T07:05:39;12.57;;;6.37;;
11791;SDS011;5953;52.372;9.918;2022-11-03T07:08:17;17.53;;;8.37;;
11791;SDS011;5953;52.372;9.918;2022-11-03T07:10:48;10.50;;;5.53;;
11791;SDS011;5953;52.372;9.918;2022-11-03T07:13:18;13.20;;;5.93;;
11791;SDS011;5953;52.372;9.918;2022-11-03T07:15:51;12.27;;;5.73;;
11791;SDS011;5953;52.372;9.918;2022-11-03T07:18:20;9.23;;;4.20;;
11791;SDS011;5953;52.372;9.918;2022-11-03T07:20:50;10.30;;;4.20;;
11791;SDS011;5953;52.372;9.918;2022-11-03T07:23:19;10.77;;;4.17;;
11791;SDS011;5953;52.372;9.918;2022-11-03T07:25:51;11.03;;;3.53;;
11791;SDS011;5953;52.372;9.918;2022-11-03T07:28:21;10.23;;;3.20;;
11791;SDS011;5953;52.372;9.918;2022-11-03T07:30:54;8.03;;;2.70;;
11791;SDS011;5953;52.372;9.918;2022-11-03T07:33:23;5.73;;;2.30;;
11791;SDS011;5953;52.372;9.918;2022-11-03T07:35:53;11.57;;;2.73;;
11791;SDS011;5953;52.372;9.918;2022-11-03T07:38:41;8.17;;;2.47;;
11791;SDS011;5953;52.372;9.918;2022-11-03T07:41:11;12.00;;;2.47;;
11791;SDS011;5953;52.372;9.918;2022-11-03T07:43:45;7.93;;;2.27;;
11791;SDS011;5953;52.372;9.918;2022-11-03T07:46:19;7.50;;;2.63;;
11791;SDS011;5953;52.372;9.918;2022-11-03T07:48:48;6.63;;;1.73;;
11791;SDS011;5953;52.372;9.918;2022-11-03T07:51:19;7.17;;;2.33;;
11791;SDS011;5953;52.372;9.918;2022-11-03T07:53:49;5.77;;;2.43;;
11791;SDS011;5953;52.372;9.918;2022-11-03T07:56:18;5.90;;;2.10;;
11791;SDS011;5953;52.372;9.918;2022-11-03T07:58:49;6.53;;;2.00;;
11791;SDS011;5953;52.372;9.918;2022-11-03T08:01:22;6.07;;;2.03;;
11791;SDS011;5953;52.372;9.918;2022-11-03T08:03:53;4.67;;;1.90;;
11791;SDS011;5953;52.372;9.918;2022-11-03T08:06:24;8.03;;;2.30;;
11791;SDS011;5953;52.372;9.918;2022-11-03T08:08:52;6.17;;;1.70;;
11791;SDS011;5953;52.372;9.918;2022-11-03T08:11:20;7.63;;;2.10;;
11791;SDS011;5953;52.372;9.918;2022-11-03T08:13:54;7.37;;;2.10;;
11791;SDS011;5953;52.372;9.918;2022-11-03T08:16:24;4.40;;;1.70;;
11791;SDS011;5953;52.372;9.918;2022-11-03T08:18:52;4.20;;;1.80;;
11791;SDS011;5953;52.372;9.918;2022-11-03T08:21:19;5.93;;;1.80;;
11791;SDS011;5953;52.372;9.918;2022-11-03T08:23:47;9.13;;;2.23;;
11791;SDS011;5953;52.372;9.918;2022-11-03T08:26:15;5.83;;;1.90;;
11791;SDS011;5953;52.372;9.918;2022-11-03T08:28:43;8.40;;;1.80;;
11791;SDS011;5953;52.372;9.918;2022-11-03T08:31:10;4.80;;;1.77;;
11791;SDS011;5953;52.372;9.918;2022-11-03T08:33:40;7.43;;;2.20;;
11791;SDS011;5953;52.372;9.918;2022-11-03T08:36:08;6.23;;;2.07;;
11791;SDS011;5953;52.372;9.918;2022-11-03T08:38:36;8.50;;;2.13;;
11791;SDS011;5953;52.372;9.918;2022-11-03T08:41:04;4.63;;;2.37;;
11791;SDS011;5953;52.372;9.918;2022-11-03T08:43:32;5.37;;;2.10;;
11791;SDS011;5953;52.372;9.918;2022-11-03T08:46:00;8.40;;;2.13;;
11791;SDS011;5953;52.372;9.918;2022-11-03T08:48:39;5.60;;;1.57;;
11791;SDS011;5953;52.372;9.918;2022-11-03T08:51:08;6.17;;;1.83;;
11791;SDS011;5953;52.372;9.918;2022-11-03T08:53:38;4.50;;;2.27;;
11791;SDS011;5953;52.372;9.918;2022-11-03T08:56:07;8.30;;;1.73;;
11791;SDS011;5953;52.372;9.918;2022-11-03T08:58:40;7.73;;;2.17;;
11791;SDS011;5953;52.372;9.918;2022-11-03T09:01:08;3.43;;;1.77;;
11791;SDS011;5953;52.372;9.918;2022-11-03T09:03:36;5.80;;;1.60;;
11791;SDS011;5953;52.372;9.918;2022-11-03T09:06:06;4.93;;;1.93;;
11791;SDS011;5953;52.372;9.918;2022-11-03T09:08:34;4.77;;;1.60;;
11791;SDS011;5953;52.372;9.918;2022-11-03T09:11:22;6.40;;;2.00;;
11791;SDS011;5953;52.372;9.918;2022-11-03T09:13:51;5.63;;;1.63;;
11791;SDS011;5953;52.372;9.918;2022-11-03T09:16:18;7.60;;;2.07;;
11791;SDS011;5953;52.372;9.918;2022-11-03T09:18:46;4.07;;;1.97;;
11791;SDS011;5953;52.372;9.918;2022-11-03T09:21:15;6.33;;;2.13;;
11791;SDS011;5953;52.372;9.918;2022-11-03T09:23:43;8.07;;;2.63;;
11791;SDS011;5953;52.372;9.918;2022-11-03T09:26:11;5.27;;;1.70;;
11791;SDS011;5953;52.372;9.918;2022-11-03T09:28:39;6.70;;;2.00;;
11791;SDS011;5953;52.372;9.918;2022-11-03T09:31:06;7.57;;;1.80;;
11791;SDS011;5953;52.372;9.918;2022-11-03T09:33:34;5.87;;;2.30;;
11791;SDS011;5953;52.372;9.918;2022-11-03T09:36:02;11.47;;;2.10;;
11791;SDS011;5953;52.372;9.918;2022-11-03T09:38:32;7.30;;;2.50;;
11791;SDS011;5953;52.372;9.918;2022-11-03T09:41:00;6.80;;;2.03;;
11791;SDS011;5953;52.372;9.918;2022-11-03T09:43:39;5.33;;;2.00;;
11791;SDS011;5953;52.372;9.918;2022-11-03T09:46:06;9.63;;;2.73;;
11791;SDS011;5953;52.372;9.918;2022-11-03T09:48:34;5.23;;;2.00;;
11791;SDS011;5953;52.372;9.918;2022-11-03T09:51:02;4.97;;;2.50;;
11791;SDS011;5953;52.372;9.918;2022-11-03T09:53:31;7.13;;;2.37;;
11791;SDS011;5953;52.372;9.918;2022-11-03T09:55:59;10.00;;;2.23;;
11791;SDS011;5953;52.372;9.918;2022-11-03T09:58:27;4.50;;;1.73;;
11791;SDS011;5953;52.372;9.918;2022-11-03T10:00:55;7.63;;;1.60;;
11791;SDS011;5953;52.372;9.918;2022-11-03T10:03:22;4.47;;;1.60;;
11791;SDS011;5953;52.372;9.918;2022-11-03T10:05:50;6.37;;;2.27;;
11791;SDS011;5953;52.372;9.918;2022-11-03T10:08:20;9.27;;;2.00;;
11791;SDS011;5953;52.372;9.918;2022-11-03T10:10:51;7.03;;;2.23;;
11791;SDS011;5953;52.372;9.918;2022-11-03T10:13:21;8.33;;;2.27;;
11791;SDS011;5953;52.372;9.918;2022-11-03T10:15:52;7.07;;;2.50;;
11791;SDS011;5953;52.372;9.918;2022-11-03T10:18:20;7.83;;;2.47;;
11791;SDS011;5953;52.372;9.918;2022-11-03T10:20:48;4.37;;;2.17;;
11791;SDS011;5953;52.372;9.918;2022-11-03T10:23:16;6.40;;;1.83;;
11791;SDS011;5953;52.372;9.918;2022-11-03T10:25:44;4.47;;;2.17;;
11791;SDS011;5953;52.372;9.918;2022-11-03T10:28:14;10.03;;;2.30;;
11791;SDS011;5953;52.372;9.918;2022-11-03T10:30:47;8.60;;;2.53;;
11791;SDS011;5953;52.372;9.918;2022-11-03T10:33:37;6.73;;;2.30;;
11791;SDS011;5953;52.372;9.918;2022-11-03T10:36:20;4.97;;;1.70;;
11791;SDS011;5953;52.372;9.918;2022-11-03T10:38:50;7.53;;;2.27;;
11791;SDS011;5953;52.372;9.918;2022-11-03T10:41:18;6.70;;;2.03;;
11791;SDS011;5953;52.372;9.918;2022-11-03T10:43:59;4.90;;;1.97;;
11791;SDS011;5953;52.372;9.918;2022-11-03T10:46:29;5.60;;;1.70;;
11791;SDS011;5953;52.372;9.918;2022-11-03T10:49:18;4.27;;;2.10;;
11791;SDS011;5953;52.372;9.918;2022-11-03T10:51:47;6.97;;;1.97;;
11791;SDS011;5953;52.372;9.918;2022-11-03T10:54:16;7.53;;;2.03;;
11791;SDS011;5953;52.372;9.918;2022-11-03T10:56:46;6.93;;;2.37;;
11791;SDS011;5953;52.372;9.918;2022-11-03T10:59:18;6.33;;;1.73;;
11791;SDS011;5953;52.372;9.918;2022-11-03T11:01:48;6.00;;;2.20;;
11791;SDS011;5953;52.372;9.918;2022-11-03T11:04:16;4.90;;;1.97;;
11791;SDS011;5953;52.372;9.918;2022-11-03T11:06:45;5.37;;;2.30;;
11791;SDS011;5953;52.372;9.918;2022-11-03T11:09:14;8.17;;;2.40;;
11791;SDS011;5953;52.372;9.918;2022-11-03T11:14:36;4.37;;;2.00;;
11791;SDS011;5953;52.372;9.918;2022-11-03T11:26:15;7.27;;;2.90;;
11791;SDS011;5953;52.372;9.918;2022-11-03T11:38:51;6.10;;;2.73;;
11791;SDS011;5953;52.372;9.918;2022-11-03T11:44:50;8.60;;;2.70;;
11791;SDS011;5953;52.372;9.918;2022-11-03T11:47:26;9.53;;;2.50;;
11791;SDS011;5953;52.372;9.918;2022-11-03T11:53:09;6.80;;;2.00;;
11791;SDS011;5953;52.372;9.918;2022-11-03T11:55:41;4.73;;;2.10;;
11791;SDS011;5953;52.372;9.918;2022-11-03T11:58:13;8.30;;;2.37;;
11791;SDS011;5953;52.372;9.918;2022-11-03T12:00:56;8.50;;;1.90;;
11791;SDS011;5953;52.372;9.918;2022-11-03T12:03:30;4.73;;;2.07;;
11791;SDS011;5953;52.372;9.918;2022-11-03T12:06:01;6.33;;;2.20;;
11791;SDS011;5953;52.372;9.918;2022-11-03T12:08:29;7.93;;;2.43;;
11791;SDS011;5953;52.372;9.918;2022-11-03T12:11:00;6.77;;;2.43;;
11791;SDS011;5953;52.372;9.918;2022-11-03T12:13:45;6.37;;;1.97;;
11791;SDS011;5953;52.372;9.918;2022-11-03T12:16:30;11.07;;;1.90;;
11791;SDS011;5953;52.372;9.918;2022-11-03T12:22:07;4.83;;;2.37;;
11791;SDS011;5953;52.372;9.918;2022-11-03T12:24:37;7.83;;;3.00;;
11791;SDS011;5953;52.372;9.918;2022-11-03T12:27:18;6.97;;;2.30;;
11791;SDS011;5953;52.372;9.918;2022-11-03T12:30:02;5.10;;;2.10;;
11791;SDS011;5953;52.372;9.918;2022-11-03T12:32:31;6.63;;;2.30;;
11791;SDS011;5953;52.372;9.918;2022-11-03T12:35:00;5.87;;;2.10;;
11791;SDS011;5953;52.372;9.918;2022-11-03T12:37:29;6.00;;;2.23;;
11791;SDS011;5953;52.372;9.918;2022-11-03T12:39:56;5.30;;;2.27;;
11791;SDS011;5953;52.372;9.918;2022-11-03T12:42:25;4.23;;;2.57;;
11791;SDS011;5953;52.372;9.918;2022-11-03T12:44:53;6.87;;;2.50;;
11791;SDS011;5953;52.372;9.918;2022-11-03T12:47:21;5.83;;;2.57;;
11791;SDS011;5953;52.372;9.918;2022-11-03T12:49:49;4.73;;;2.40;;
11791;SDS011;5953;52.372;9.918;2022-11-03T12:52:17;4.53;;;2.07;;
11791;SDS011;5953;52.372;9.918;2022-11-03T12:54:45;4.30;;;2.17;;
11791;SDS011;5953;52.372;9.918;2022-11-03T12:57:13;5.60;;;2.17;;
11791;SDS011;5953;52.372;9.918;2022-11-03T12:59:42;4.23;;;1.73;;
11791;SDS011;5953;52.372;9.918;2022-11-03T13:02:09;8.33;;;2.37;;
11791;SDS011;5953;52.372;9.918;2022-11-03T13:04:38;6.03;;;2.37;;
11791;SDS011;5953;52.372;9.918;2022-11-03T13:07:05;6.50;;;2.40;;
11791;SDS011;5953;52.372;9.918;2022-11-03T13:09:33;4.43;;;2.00;;
11791;SDS011;5953;52.372;9.918;2022-11-03T13:12:02;5.73;;;2.33;;
11791;SDS011;5953;52.372;9.918;2022-11-03T13:14:49;4.60;;;2.20;;
11791;SDS011;5953;52.372;9.918;2022-11-03T13:17:17;4.37;;;1.90;;
11791;SDS011;5953;52.372;9.918;2022-11-03T13:19:45;4.53;;;2.07;;
11791;SDS011;5953;52.372;9.918;2022-11-03T13:22:19;5.13;;;2.43;;
11791;SDS011;5953;52.372;9.918;2022-11-03T13:24:47;6.80;;;2.60;;
11791;SDS011;5953;52.372;9.918;2022-11-03T13:27:15;6.90;;;2.17;;
11791;SDS011;5953;52.372;9.918;2022-11-03T13:29:42;4.40;;;2.33;;
11791;SDS011;5953;52.372;9.918;2022-11-03T13:32:12;5.30;;;2.20;;
11791;SDS011;5953;52.372;9.918;2022-11-03T13:34:39;6.20;;;1.80;;
11791;SDS011;5953;52.372;9.918;2022-11-03T13:37:07;4.40;;;2.10;;
11791;SDS011;5953;52.372;9.918;2022-11-03T13:39:35;2.90;;;1.77;;
11791;SDS011;5953;52.372;9.918;2022-11-03T13:42:02;5.43;;;2.03;;
11791;SDS011;5953;52.372;9.918;2022-11-03T13:44:30;5.97;;;2.30;;
11791;SDS011;5953;52.372;9.918;2022-11-03T13:46:58;3.47;;;2.13;;
11791;SDS011;5953;52.372;9.918;2022-11-03T13:49:27;6.70;;;2.90;;
11791;SDS011;5953;52.372;9.918;2022-11-03T13:52:15;6.10;;;2.17;;
11791;SDS011;5953;52.372;9.918;2022-11-03T13:54:42;4.73;;;2.00;;
11791;SDS011;5953;52.372;9.918;2022-11-03T13:57:30;4.57;;;1.87;;
11791;SDS011;5953;52.372;9.918;2022-11-03T14:00:18;5.60;;;2.27;;
11791;SDS011;5953;52.372;9.918;2022-11-03T14:02:48;8.30;;;2.63;;
11791;SDS011;5953;52.372;9.918;2022-11-03T14:05:37;5.03;;;1.90;;
11791;SDS011;5953;52.372;9.918;2022-11-03T14:08:05;4.83;;;1.90;;
11791;SDS011;5953;52.372;9.918;2022-11-03T14:10:33;4.97;;;1.70;;
11791;SDS011;5953;52.372;9.918;2022-11-03T14:13:01;5.87;;;2.17;;
11791;SDS011;5953;52.372;9.918;2022-11-03T14:15:28;5.97;;;2.57;;
11791;SDS011;5953;52.372;9.918;2022-11-03T14:17:56;6.13;;;2.60;;
11791;SDS011;5953;52.372;9.918;2022-11-03T14:20:23;3.67;;;2.30;;
11791;SDS011;5953;52.372;9.918;2022-11-03T14:22:57;5.93;;;2.53;;
11791;SDS011;5953;52.372;9.918;2022-11-03T14:25:25;5.47;;;2.57;;
11791;SDS011;5953;52.372;9.918;2022-11-03T14:27:53;5.60;;;2.30;;
11791;SDS011;5953;52.372;9.918;2022-11-03T14:30:21;4.63;;;1.93;;
11791;SDS011;5953;52.372;9.918;2022-11-03T14:32:49;5.03;;;1.83;;
11791;SDS011;5953;52.372;9.918;2022-11-03T14:35:24;4.37;;;2.17;;
11791;SDS011;5953;52.372;9.918;2022-11-03T14:37:52;4.70;;;2.33;;
11791;SDS011;5953;52.372;9.918;2022-11-03T14:40:21;5.03;;;2.33;;
11791;SDS011;5953;52.372;9.918;2022-11-03T14:43:06;7.80;;;2.83;;
11791;SDS011;5953;52.372;9.918;2022-11-03T14:45:34;4.80;;;2.30;;
11791;SDS011;5953;52.372;9.918;2022-11-03T14:48:07;4.80;;;2.33;;
11791;SDS011;5953;52.372;9.918;2022-11-03T14:50:35;4.10;;;2.03;;
11791;SDS011;5953;52.372;9.918;2022-11-03T14:53:03;5.47;;;2.30;;
11791;SDS011;5953;52.372;9.918;2022-11-03T14:55:32;3.87;;;2.07;;
11791;SDS011;5953;52.372;9.918;2022-11-03T14:58:00;5.97;;;2.60;;
11791;SDS011;5953;52.372;9.918;2022-11-03T15:00:28;5.67;;;2.80;;
11791;SDS011;5953;52.372;9.918;2022-11-03T15:02:55;7.47;;;2.63;;
11791;SDS011;5953;52.372;9.918;2022-11-03T15:05:23;5.63;;;2.50;;
11791;SDS011;5953;52.372;9.918;2022-11-03T15:08:08;10.10;;;2.80;;
11791;SDS011;5953;52.372;9.918;2022-11-03T15:10:38;7.90;;;2.70;;
11791;SDS011;5953;52.372;9.918;2022-11-03T15:13:06;6.50;;;2.80;;
11791;SDS011;5953;52.372;9.918;2022-11-03T15:15:34;5.57;;;2.80;;
11791;SDS011;5953;52.372;9.918;2022-11-03T15:18:02;4.73;;;2.87;;
11791;SDS011;5953;52.372;9.918;2022-11-03T15:20:30;5.50;;;3.03;;
11791;SDS011;5953;52.372;9.918;2022-11-03T15:23:00;6.47;;;3.10;;
11791;SDS011;5953;52.372;9.918;2022-11-03T15:25:50;6.37;;;2.70;;
11791;SDS011;5953;52.372;9.918;2022-11-03T15:28:17;3.43;;;2.63;;
11791;SDS011;5953;52.372;9.918;2022-11-03T15:30:47;7.80;;;2.87;;
11791;SDS011;5953;52.372;9.918;2022-11-03T15:33:14;12.77;;;6.97;;
11791;SDS011;5953;52.372;9.918;2022-11-03T15:35:42;5.97;;;2.57;;
11791;SDS011;5953;52.372;9.918;2022-11-03T15:38:10;9.47;;;3.00;;
11791;SDS011;5953;52.372;9.918;2022-11-03T15:40:38;9.33;;;3.03;;
11791;SDS011;5953;52.372;9.918;2022-11-03T15:43:07;6.33;;;2.73;;
11791;SDS011;5953;52.372;9.918;2022-11-03T15:45:35;9.10;;;3.40;;
11791;SDS011;5953;52.372;9.918;2022-11-03T15:48:03;6.23;;;2.93;;
11791;SDS011;5953;52.372;9.918;2022-11-03T15:50:31;6.47;;;3.20;;
11791;SDS011;5953;52.372;9.918;2022-11-03T15:52:59;6.97;;;2.90;;
11791;SDS011;5953;52.372;9.918;2022-11-03T15:55:26;8.33;;;3.00;;
11791;SDS011;5953;52.372;9.918;2022-11-03T15:57:54;5.20;;;2.27;;
11791;SDS011;5953;52.372;9.918;2022-11-03T16:00:23;5.37;;;2.37;;